sensor_id;sensor_type;location;lat;lon;timestamp;P1;durP1;ratioP1;P2;durP2;ratioP2
43154;SDS011;34212;51.018;13.586;2023-02-22T00:04:49;7.68;;;5.50;;
43154;SDS011;34212;51.018;13.586;2023-02-22T00:09:51;10.48;;;6.10;;
43154;SDS011;34212;51.018;13.586;2023-02-22T00:14:52;7.93;;;5.63;;
43154;SDS011;34212;51.018;13.586;2023-02-22T00:19:54;10.38;;;5.18;;
43154;SDS011;34212;51.018;13.586;2023-02-22T00:24:55;8.65;;;5.38;;
43154;SDS011;34212;51.018;13.586;2023-02-22T00:29:57;8.70;;;5.63;;
43154;SDS011;34212;51.018;13.586;2023-02-22T00:35:01;8.88;;;5.88;;
43154;SDS011;34212;51.018;13.586;2023-02-22T00:40:10;9.82;;;5.85;;
43154;SDS011;34212;51.018;13.586;2023-02-22T00:45:15;7.90;;;6.28;;
43154;SDS011;34212;51.018;13.586;2023-02-22T00:50:19;7.50;;;5.70;;
43154;SDS011;34212;51.018;13.586;2023-02-22T00:55:25;8.30;;;5.68;;
43154;SDS011;34212;51.018;13.586;2023-02-22T01:00:29;10.30;;;6.43;;
43154;SDS011;34212;51.018;13.586;2023-02-22T01:05:36;8.98;;;5.80;;
43154;SDS011;34212;51.018;13.586;2023-02-22T01:10:41;10.90;;;6.00;;
43154;SDS011;34212;51.018;13.586;2023-02-22T01:15:43;9.23;;;5.93;;
43154;SDS011;34212;51.018;13.586;2023-02-22T01:20:45;12.27;;;6.00;;
43154;SDS011;34212;51.018;13.586;2023-02-22T01:25:48;10.15;;;6.40;;
43154;SDS011;34212;51.018;13.586;2023-02-22T01:30:50;9.75;;;6.10;;
43154;SDS011;34212;51.018;13.586;2023-02-22T01:35:52;10.25;;;6.63;;
43154;SDS011;34212;51.018;13.586;2023-02-22T01:40:53;8.65;;;6.28;;
43154;SDS011;34212;51.018;13.586;2023-02-22T01:56:12;11.57;;;6.90;;
43154;SDS011;34212;51.018;13.586;2023-02-22T02:01:15;10.90;;;6.70;;
43154;SDS011;34212;51.018;13.586;2023-02-22T02:06:18;9.27;;;7.18;;
43154;SDS011;34212;51.018;13.586;2023-02-22T02:11:21;10.17;;;6.90;;
43154;SDS011;34212;51.018;13.586;2023-02-22T02:16:28;9.23;;;6.45;;
43154;SDS011;34212;51.018;13.586;2023-02-22T02:21:41;11.40;;;6.70;;
43154;SDS011;34212;51.018;13.586;2023-02-22T02:26:50;9.85;;;6.70;;
43154;SDS011;34212;51.018;13.586;2023-02-22T02:42:35;11.07;;;7.05;;
43154;SDS011;34212;51.018;13.586;2023-02-22T02:47:44;9.88;;;6.20;;
43154;SDS011;34212;51.018;13.586;2023-02-22T02:52:52;12.48;;;6.93;;
43154;SDS011;34212;51.018;13.586;2023-02-22T02:57:57;9.70;;;6.70;;
43154;SDS011;34212;51.018;13.586;2023-02-22T03:14:02;10.70;;;6.47;;
43154;SDS011;34212;51.018;13.586;2023-02-22T03:19:19;10.80;;;6.47;;
43154;SDS011;34212;51.018;13.586;2023-02-22T03:25:13;10.77;;;6.07;;
43154;SDS011;34212;51.018;13.586;2023-02-22T03:30:17;12.48;;;5.32;;
43154;SDS011;34212;51.018;13.586;2023-02-22T03:35:24;9.57;;;5.93;;
43154;SDS011;34212;51.018;13.586;2023-02-22T03:40:32;12.07;;;6.25;;
43154;SDS011;34212;51.018;13.586;2023-02-22T03:45:36;13.02;;;5.97;;
43154;SDS011;34212;51.018;13.586;2023-02-22T03:50:43;10.77;;;5.88;;
43154;SDS011;34212;51.018;13.586;2023-02-22T03:55:46;8.50;;;5.97;;
43154;SDS011;34212;51.018;13.586;2023-02-22T04:00:56;7.93;;;5.03;;
43154;SDS011;34212;51.018;13.586;2023-02-22T04:05:57;11.05;;;6.45;;
43154;SDS011;34212;51.018;13.586;2023-02-22T04:10:59;10.80;;;6.13;;
43154;SDS011;34212;51.018;13.586;2023-02-22T04:16:03;11.52;;;6.97;;
43154;SDS011;34212;51.018;13.586;2023-02-22T04:21:05;9.87;;;5.07;;
43154;SDS011;34212;51.018;13.586;2023-02-22T04:26:14;9.00;;;5.78;;
43154;SDS011;34212;51.018;13.586;2023-02-22T04:31:20;8.32;;;5.07;;
43154;SDS011;34212;51.018;13.586;2023-02-22T04:36:23;9.20;;;5.78;;
43154;SDS011;34212;51.018;13.586;2023-02-22T04:41:26;6.20;;;4.40;;
43154;SDS011;34212;51.018;13.586;2023-02-22T04:46:28;6.60;;;4.45;;
43154;SDS011;34212;51.018;13.586;2023-02-22T04:51:30;8.93;;;5.40;;
43154;SDS011;34212;51.018;13.586;2023-02-22T04:56:39;9.38;;;5.38;;
43154;SDS011;34212;51.018;13.586;2023-02-22T05:01:40;8.70;;;5.47;;
43154;SDS011;34212;51.018;13.586;2023-02-22T05:06:42;9.38;;;5.40;;
43154;SDS011;34212;51.018;13.586;2023-02-22T05:11:45;11.55;;;6.78;;
43154;SDS011;34212;51.018;13.586;2023-02-22T05:16:47;11.93;;;5.95;;
43154;SDS011;34212;51.018;13.586;2023-02-22T05:26:51;9.38;;;6.07;;
43154;SDS011;34212;51.018;13.586;2023-02-22T05:31:53;11.02;;;6.35;;
43154;SDS011;34212;51.018;13.586;2023-02-22T05:36:55;9.63;;;6.13;;
43154;SDS011;34212;51.018;13.586;2023-02-22T05:41:56;10.63;;;6.38;;
43154;SDS011;34212;51.018;13.586;2023-02-22T05:46:58;11.35;;;6.70;;
43154;SDS011;34212;51.018;13.586;2023-02-22T05:51:59;10.02;;;5.53;;
43154;SDS011;34212;51.018;13.586;2023-02-22T05:57:01;9.27;;;6.22;;
43154;SDS011;34212;51.018;13.586;2023-02-22T06:02:02;10.40;;;6.68;;
43154;SDS011;34212;51.018;13.586;2023-02-22T06:07:04;9.68;;;6.15;;
43154;SDS011;34212;51.018;13.586;2023-02-22T06:12:07;10.00;;;6.57;;
43154;SDS011;34212;51.018;13.586;2023-02-22T06:17:09;11.93;;;6.57;;
43154;SDS011;34212;51.018;13.586;2023-02-22T06:22:15;10.90;;;7.05;;
43154;SDS011;34212;51.018;13.586;2023-02-22T06:27:18;14.77;;;7.47;;
43154;SDS011;34212;51.018;13.586;2023-02-22T06:32:19;10.60;;;6.22;;
43154;SDS011;34212;51.018;13.586;2023-02-22T06:37:21;12.50;;;6.30;;
43154;SDS011;34212;51.018;13.586;2023-02-22T06:42:22;9.07;;;6.20;;
43154;SDS011;34212;51.018;13.586;2023-02-22T06:47:24;10.73;;;7.30;;
43154;SDS011;34212;51.018;13.586;2023-02-22T06:52:25;11.77;;;7.38;;
43154;SDS011;34212;51.018;13.586;2023-02-22T06:57:27;13.35;;;8.65;;
43154;SDS011;34212;51.018;13.586;2023-02-22T07:02:28;14.02;;;7.93;;
43154;SDS011;34212;51.018;13.586;2023-02-22T07:07:30;13.40;;;8.18;;
43154;SDS011;34212;51.018;13.586;2023-02-22T07:12:31;13.85;;;8.57;;
43154;SDS011;34212;51.018;13.586;2023-02-22T07:17:33;14.57;;;9.02;;
43154;SDS011;34212;51.018;13.586;2023-02-22T07:22:34;13.43;;;9.27;;
43154;SDS011;34212;51.018;13.586;2023-02-22T07:27:36;18.20;;;10.98;;
43154;SDS011;34212;51.018;13.586;2023-02-22T07:37:42;14.50;;;8.90;;
43154;SDS011;34212;51.018;13.586;2023-02-22T07:42:57;15.73;;;10.47;;
43154;SDS011;34212;51.018;13.586;2023-02-22T07:48:02;15.32;;;9.75;;
43154;SDS011;34212;51.018;13.586;2023-02-22T07:53:05;16.88;;;10.32;;
43154;SDS011;34212;51.018;13.586;2023-02-22T07:58:12;17.02;;;9.48;;
43154;SDS011;34212;51.018;13.586;2023-02-22T08:03:16;16.42;;;10.43;;
43154;SDS011;34212;51.018;13.586;2023-02-22T08:08:19;21.13;;;10.50;;
43154;SDS011;34212;51.018;13.586;2023-02-22T08:13:21;16.33;;;10.23;;
43154;SDS011;34212;51.018;13.586;2023-02-22T08:18:23;14.18;;;9.57;;
43154;SDS011;34212;51.018;13.586;2023-02-22T08:23:25;13.23;;;9.13;;
43154;SDS011;34212;51.018;13.586;2023-02-22T08:28:27;16.63;;;8.82;;
43154;SDS011;34212;51.018;13.586;2023-02-22T08:33:28;14.30;;;8.75;;
43154;SDS011;34212;51.018;13.586;2023-02-22T08:38:30;16.23;;;9.77;;
43154;SDS011;34212;51.018;13.586;2023-02-22T08:43:34;14.32;;;9.65;;
43154;SDS011;34212;51.018;13.586;2023-02-22T08:48:35;14.55;;;9.25;;
43154;SDS011;34212;51.018;13.586;2023-02-22T08:53:36;15.43;;;9.60;;
43154;SDS011;34212;51.018;13.586;2023-02-22T08:58:38;14.25;;;9.05;;
43154;SDS011;34212;51.018;13.586;2023-02-22T09:03:39;13.98;;;8.63;;
43154;SDS011;34212;51.018;13.586;2023-02-22T09:08:41;14.60;;;9.38;;
43154;SDS011;34212;51.018;13.586;2023-02-22T09:13:42;14.52;;;9.98;;
43154;SDS011;34212;51.018;13.586;2023-02-22T09:18:44;13.43;;;7.95;;
43154;SDS011;34212;51.018;13.586;2023-02-22T09:23:46;15.23;;;7.97;;
43154;SDS011;34212;51.018;13.586;2023-02-22T09:28:48;13.87;;;8.73;;
43154;SDS011;34212;51.018;13.586;2023-02-22T09:33:50;11.40;;;7.82;;
43154;SDS011;34212;51.018;13.586;2023-02-22T09:38:52;11.77;;;7.60;;
43154;SDS011;34212;51.018;13.586;2023-02-22T09:44:06;12.38;;;8.10;;
43154;SDS011;34212;51.018;13.586;2023-02-22T09:49:32;10.30;;;7.22;;
43154;SDS011;34212;51.018;13.586;2023-02-22T09:54:39;11.57;;;6.30;;
43154;SDS011;34212;51.018;13.586;2023-02-22T09:59:47;11.25;;;6.80;;
43154;SDS011;34212;51.018;13.586;2023-02-22T10:10:43;8.60;;;6.10;;
43154;SDS011;34212;51.018;13.586;2023-02-22T10:15:52;9.68;;;6.35;;
43154;SDS011;34212;51.018;13.586;2023-02-22T10:26:26;6.45;;;5.10;;
43154;SDS011;34212;51.018;13.586;2023-02-22T10:31:32;8.13;;;5.25;;
43154;SDS011;34212;51.018;13.586;2023-02-22T10:36:38;6.90;;;5.57;;
43154;SDS011;34212;51.018;13.586;2023-02-22T10:41:41;6.38;;;5.18;;
43154;SDS011;34212;51.018;13.586;2023-02-22T10:46:49;8.77;;;5.82;;
43154;SDS011;34212;51.018;13.586;2023-02-22T10:51:56;6.65;;;4.78;;
43154;SDS011;34212;51.018;13.586;2023-02-22T10:57:01;6.70;;;5.28;;
43154;SDS011;34212;51.018;13.586;2023-02-22T11:02:20;9.25;;;6.13;;
43154;SDS011;34212;51.018;13.586;2023-02-22T11:07:34;10.52;;;7.07;;
43154;SDS011;34212;51.018;13.586;2023-02-22T11:12:37;9.80;;;6.20;;
43154;SDS011;34212;51.018;13.586;2023-02-22T11:17:41;8.18;;;6.10;;
43154;SDS011;34212;51.018;13.586;2023-02-22T11:22:44;4.07;;;3.33;;
43154;SDS011;34212;51.018;13.586;2023-02-22T11:27:46;3.88;;;3.13;;
43154;SDS011;34212;51.018;13.586;2023-02-22T11:32:49;4.40;;;3.90;;
43154;SDS011;34212;51.018;13.586;2023-02-22T11:38:10;5.47;;;4.50;;
43154;SDS011;34212;51.018;13.586;2023-02-22T11:43:17;3.92;;;3.25;;
43154;SDS011;34212;51.018;13.586;2023-02-22T11:48:20;3.92;;;3.35;;
43154;SDS011;34212;51.018;13.586;2023-02-22T11:53:25;8.25;;;3.53;;
43154;SDS011;34212;51.018;13.586;2023-02-22T11:58:41;4.80;;;4.05;;
43154;SDS011;34212;51.018;13.586;2023-02-22T12:20:04;6.72;;;4.55;;
43154;SDS011;34212;51.018;13.586;2023-02-22T12:25:17;8.38;;;5.43;;
43154;SDS011;34212;51.018;13.586;2023-02-22T12:30:25;7.38;;;5.28;;
43154;SDS011;34212;51.018;13.586;2023-02-22T12:35:27;8.45;;;5.60;;
43154;SDS011;34212;51.018;13.586;2023-02-22T12:40:55;9.43;;;6.72;;
43154;SDS011;34212;51.018;13.586;2023-02-22T12:46:16;7.43;;;5.78;;
43154;SDS011;34212;51.018;13.586;2023-02-22T12:51:28;9.48;;;6.38;;
43154;SDS011;34212;51.018;13.586;2023-02-22T12:56:49;6.70;;;5.28;;
43154;SDS011;34212;51.018;13.586;2023-02-22T13:01:57;6.35;;;5.18;;
43154;SDS011;34212;51.018;13.586;2023-02-22T13:12:35;8.20;;;5.43;;
43154;SDS011;34212;51.018;13.586;2023-02-22T13:23:28;8.13;;;5.45;;
43154;SDS011;34212;51.018;13.586;2023-02-22T13:49:33;8.38;;;5.60;;
43154;SDS011;34212;51.018;13.586;2023-02-22T13:59:46;6.28;;;5.05;;
43154;SDS011;34212;51.018;13.586;2023-02-22T14:04:48;6.47;;;4.82;;
43154;SDS011;34212;51.018;13.586;2023-02-22T14:09:50;7.95;;;5.53;;
43154;SDS011;34212;51.018;13.586;2023-02-22T14:15:07;5.90;;;5.03;;
43154;SDS011;34212;51.018;13.586;2023-02-22T14:20:31;7.57;;;5.40;;
43154;SDS011;34212;51.018;13.586;2023-02-22T14:25:37;9.00;;;5.30;;
43154;SDS011;34212;51.018;13.586;2023-02-22T14:30:41;6.18;;;5.32;;
43154;SDS011;34212;51.018;13.586;2023-02-22T14:35:43;8.50;;;5.68;;
43154;SDS011;34212;51.018;13.586;2023-02-22T14:40:58;7.53;;;5.32;;
43154;SDS011;34212;51.018;13.586;2023-02-22T14:46:03;7.80;;;5.50;;
43154;SDS011;34212;51.018;13.586;2023-02-22T14:51:29;6.80;;;5.60;;
43154;SDS011;34212;51.018;13.586;2023-02-22T14:56:45;6.88;;;5.38;;
43154;SDS011;34212;51.018;13.586;2023-02-22T15:02:05;7.93;;;5.03;;
43154;SDS011;34212;51.018;13.586;2023-02-22T15:07:19;5.80;;;4.53;;
43154;SDS011;34212;51.018;13.586;2023-02-22T15:12:27;9.45;;;5.93;;
43154;SDS011;34212;51.018;13.586;2023-02-22T15:17:31;8.07;;;5.55;;
43154;SDS011;34212;51.018;13.586;2023-02-22T15:22:34;9.63;;;5.07;;
43154;SDS011;34212;51.018;13.586;2023-02-22T15:27:45;7.13;;;5.05;;
43154;SDS011;34212;51.018;13.586;2023-02-22T15:32:47;7.93;;;5.40;;
43154;SDS011;34212;51.018;13.586;2023-02-22T15:38:05;7.45;;;5.10;;
43154;SDS011;34212;51.018;13.586;2023-02-22T15:43:17;7.57;;;5.22;;
43154;SDS011;34212;51.018;13.586;2023-02-22T15:48:24;8.30;;;4.43;;
43154;SDS011;34212;51.018;13.586;2023-02-22T15:53:29;7.20;;;5.05;;
43154;SDS011;34212;51.018;13.586;2023-02-22T15:58:40;8.35;;;5.40;;
43154;SDS011;34212;51.018;13.586;2023-02-22T16:03:51;7.03;;;5.07;;
43154;SDS011;34212;51.018;13.586;2023-02-22T16:08:55;7.05;;;5.13;;
43154;SDS011;34212;51.018;13.586;2023-02-22T16:14:00;8.48;;;5.15;;
43154;SDS011;34212;51.018;13.586;2023-02-22T16:24:25;5.97;;;4.55;;
43154;SDS011;34212;51.018;13.586;2023-02-22T16:29:29;9.10;;;6.38;;
43154;SDS011;34212;51.018;13.586;2023-02-22T16:34:30;9.83;;;6.60;;
43154;SDS011;34212;51.018;13.586;2023-02-22T16:39:32;11.23;;;7.20;;
43154;SDS011;34212;51.018;13.586;2023-02-22T16:44:36;13.00;;;7.85;;
43154;SDS011;34212;51.018;13.586;2023-02-22T16:49:37;10.80;;;6.63;;
43154;SDS011;34212;51.018;13.586;2023-02-22T16:54:40;11.82;;;8.13;;
43154;SDS011;34212;51.018;13.586;2023-02-22T16:59:45;12.00;;;7.38;;
43154;SDS011;34212;51.018;13.586;2023-02-22T17:04:50;14.35;;;8.52;;
43154;SDS011;34212;51.018;13.586;2023-02-22T17:09:51;13.38;;;8.05;;
43154;SDS011;34212;51.018;13.586;2023-02-22T17:14:53;14.77;;;8.55;;
43154;SDS011;34212;51.018;13.586;2023-02-22T17:19:54;13.05;;;8.70;;
43154;SDS011;34212;51.018;13.586;2023-02-22T17:24:56;15.90;;;9.23;;
43154;SDS011;34212;51.018;13.586;2023-02-22T17:29:57;18.98;;;9.02;;
43154;SDS011;34212;51.018;13.586;2023-02-22T17:34:59;14.32;;;9.13;;
43154;SDS011;34212;51.018;13.586;2023-02-22T17:40:00;15.70;;;9.52;;
43154;SDS011;34212;51.018;13.586;2023-02-22T17:45:02;15.77;;;9.70;;
43154;SDS011;34212;51.018;13.586;2023-02-22T17:50:04;16.08;;;10.18;;
43154;SDS011;34212;51.018;13.586;2023-02-22T17:55:05;18.90;;;11.05;;
43154;SDS011;34212;51.018;13.586;2023-02-22T18:00:07;15.38;;;11.02;;
43154;SDS011;34212;51.018;13.586;2023-02-22T18:05:13;18.50;;;10.82;;
43154;SDS011;34212;51.018;13.586;2023-02-22T18:10:17;17.02;;;11.43;;
43154;SDS011;34212;51.018;13.586;2023-02-22T18:20:22;16.52;;;12.15;;
43154;SDS011;34212;51.018;13.586;2023-02-22T18:25:47;15.90;;;11.90;;
43154;SDS011;34212;51.018;13.586;2023-02-22T18:31:09;17.33;;;12.07;;
43154;SDS011;34212;51.018;13.586;2023-02-22T18:36:17;17.77;;;11.93;;
43154;SDS011;34212;51.018;13.586;2023-02-22T18:41:28;21.85;;;13.80;;
43154;SDS011;34212;51.018;13.586;2023-02-22T18:46:30;18.70;;;13.05;;
43154;SDS011;34212;51.018;13.586;2023-02-22T18:51:31;18.45;;;13.02;;
43154;SDS011;34212;51.018;13.586;2023-02-22T18:56:32;18.27;;;13.32;;
43154;SDS011;34212;51.018;13.586;2023-02-22T19:01:34;20.25;;;13.55;;
43154;SDS011;34212;51.018;13.586;2023-02-22T19:06:39;19.98;;;13.35;;
43154;SDS011;34212;51.018;13.586;2023-02-22T19:11:41;19.35;;;14.15;;
43154;SDS011;34212;51.018;13.586;2023-02-22T19:16:48;22.40;;;14.18;;
43154;SDS011;34212;51.018;13.586;2023-02-22T19:26:52;20.67;;;13.73;;
43154;SDS011;34212;51.018;13.586;2023-02-22T19:31:58;18.15;;;13.02;;
43154;SDS011;34212;51.018;13.586;2023-02-22T19:37:01;22.80;;;15.10;;
43154;SDS011;34212;51.018;13.586;2023-02-22T19:42:05;19.50;;;13.02;;
43154;SDS011;34212;51.018;13.586;2023-02-22T19:47:09;21.42;;;13.80;;
43154;SDS011;34212;51.018;13.586;2023-02-22T19:52:11;23.38;;;14.93;;
43154;SDS011;34212;51.018;13.586;2023-02-22T19:57:13;23.60;;;14.98;;
43154;SDS011;34212;51.018;13.586;2023-02-22T20:02:14;21.92;;;14.35;;
43154;SDS011;34212;51.018;13.586;2023-02-22T20:07:16;20.27;;;13.68;;
43154;SDS011;34212;51.018;13.586;2023-02-22T20:12:18;21.33;;;14.02;;
43154;SDS011;34212;51.018;13.586;2023-02-22T20:17:19;21.48;;;14.85;;
43154;SDS011;34212;51.018;13.586;2023-02-22T20:22:21;21.70;;;14.85;;
43154;SDS011;34212;51.018;13.586;2023-02-22T20:27:23;21.80;;;14.48;;
43154;SDS011;34212;51.018;13.586;2023-02-22T20:32:24;20.80;;;13.48;;
43154;SDS011;34212;51.018;13.586;2023-02-22T20:37:29;21.17;;;13.57;;
43154;SDS011;34212;51.018;13.586;2023-02-22T20:42:33;27.05;;;14.05;;
43154;SDS011;34212;51.018;13.586;2023-02-22T20:47:34;19.85;;;13.98;;
43154;SDS011;34212;51.018;13.586;2023-02-22T20:52:36;20.77;;;13.85;;
43154;SDS011;34212;51.018;13.586;2023-02-22T20:57:38;22.10;;;14.00;;
43154;SDS011;34212;51.018;13.586;2023-02-22T21:02:40;20.27;;;12.73;;
43154;SDS011;34212;51.018;13.586;2023-02-22T21:07:42;21.80;;;13.02;;
43154;SDS011;34212;51.018;13.586;2023-02-22T21:12:43;23.00;;;14.20;;
43154;SDS011;34212;51.018;13.586;2023-02-22T21:17:48;21.60;;;13.30;;
43154;SDS011;34212;51.018;13.586;2023-02-22T21:22:49;18.88;;;13.27;;
43154;SDS011;34212;51.018;13.586;2023-02-22T21:27:52;19.92;;;13.63;;
43154;SDS011;34212;51.018;13.586;2023-02-22T21:32:55;22.73;;;13.00;;
43154;SDS011;34212;51.018;13.586;2023-02-22T21:37:56;19.77;;;13.35;;
43154;SDS011;34212;51.018;13.586;2023-02-22T21:42:58;18.85;;;13.35;;
43154;SDS011;34212;51.018;13.586;2023-02-22T21:48:00;23.27;;;13.75;;
43154;SDS011;34212;51.018;13.586;2023-02-22T21:53:01;19.80;;;12.48;;
43154;SDS011;34212;51.018;13.586;2023-02-22T21:58:03;23.23;;;13.55;;
43154;SDS011;34212;51.018;13.586;2023-02-22T22:03:06;21.40;;;13.75;;
43154;SDS011;34212;51.018;13.586;2023-02-22T22:08:20;21.10;;;12.70;;
43154;SDS011;34212;51.018;13.586;2023-02-22T22:13:22;19.50;;;12.65;;
43154;SDS011;34212;51.018;13.586;2023-02-22T22:18:28;18.50;;;12.52;;
43154;SDS011;34212;51.018;13.586;2023-02-22T22:23:29;18.73;;;12.50;;
43154;SDS011;34212;51.018;13.586;2023-02-22T22:28:31;21.38;;;13.52;;
43154;SDS011;34212;51.018;13.586;2023-02-22T22:33:33;20.33;;;12.82;;
43154;SDS011;34212;51.018;13.586;2023-02-22T22:38:35;21.88;;;13.02;;
43154;SDS011;34212;51.018;13.586;2023-02-22T22:43:40;21.38;;;13.88;;
43154;SDS011;34212;51.018;13.586;2023-02-22T22:48:46;18.80;;;12.55;;
43154;SDS011;34212;51.018;13.586;2023-02-22T22:53:48;17.85;;;11.93;;
43154;SDS011;34212;51.018;13.586;2023-02-22T22:58:51;19.33;;;12.77;;
43154;SDS011;34212;51.018;13.586;2023-02-22T23:03:55;18.35;;;12.48;;
43154;SDS011;34212;51.018;13.586;2023-02-22T23:09:06;17.63;;;12.15;;
43154;SDS011;34212;51.018;13.586;2023-02-22T23:14:12;18.38;;;12.77;;
43154;SDS011;34212;51.018;13.586;2023-02-22T23:19:22;16.80;;;11.70;;
43154;SDS011;34212;51.018;13.586;2023-02-22T23:24:24;19.23;;;12.30;;
43154;SDS011;34212;51.018;13.586;2023-02-22T23:29:29;16.00;;;11.13;;
43154;SDS011;34212;51.018;13.586;2023-02-22T23:34:31;16.25;;;10.43;;
43154;SDS011;34212;51.018;13.586;2023-02-22T23:39:33;15.37;;;10.93;;
43154;SDS011;34212;51.018;13.586;2023-02-22T23:44:34;14.93;;;10.85;;
43154;SDS011;34212;51.018;13.586;2023-02-22T23:49:36;15.73;;;11.25;;
43154;SDS011;34212;51.018;13.586;2023-02-22T23:54:38;17.00;;;11.13;;
43154;SDS011;34212;51.018;13.586;2023-02-22T23:59:44;14.32;;;9.77;;
